sensor_id;sensor_type;location;lat;lon;timestamp;P1;durP1;ratioP1;P2;durP2;ratioP2
6432;SDS011;3249;42.690;23.260;2023-02-22T00:02:08;8.10;;;7.33;;
6432;SDS011;3249;42.690;23.260;2023-02-22T00:04:51;8.47;;;7.67;;
6432;SDS011;3249;42.690;23.260;2023-02-22T00:07:20;9.90;;;7.60;;
6432;SDS011;3249;42.690;23.260;2023-02-22T00:09:50;10.37;;;8.37;;
6432;SDS011;3249;42.690;23.260;2023-02-22T00:12:18;9.30;;;8.00;;
6432;SDS011;3249;42.690;23.260;2023-02-22T00:14:47;8.90;;;8.07;;
6432;SDS011;3249;42.690;23.260;2023-02-22T00:17:19;14.63;;;9.83;;
6432;SDS011;3249;42.690;23.260;2023-02-22T00:19:48;13.50;;;9.57;;
6432;SDS011;3249;42.690;23.260;2023-02-22T00:22:17;22.87;;;17.37;;
6432;SDS011;3249;42.690;23.260;2023-02-22T00:24:46;13.53;;;10.30;;
6432;SDS011;3249;42.690;23.260;2023-02-22T00:27:15;16.70;;;9.30;;
6432;SDS011;3249;42.690;23.260;2023-02-22T00:29:45;14.70;;;10.17;;
6432;SDS011;3249;42.690;23.260;2023-02-22T00:32:14;15.27;;;10.77;;
6432;SDS011;3249;42.690;23.260;2023-02-22T00:34:46;13.50;;;9.83;;
6432;SDS011;3249;42.690;23.260;2023-02-22T00:37:19;10.87;;;8.83;;
6432;SDS011;3249;42.690;23.260;2023-02-22T00:39:48;10.37;;;9.13;;
6432;SDS011;3249;42.690;23.260;2023-02-22T00:42:19;11.93;;;9.83;;
6432;SDS011;3249;42.690;23.260;2023-02-22T00:44:48;12.07;;;9.73;;
6432;SDS011;3249;42.690;23.260;2023-02-22T00:47:16;10.13;;;9.13;;
6432;SDS011;3249;42.690;23.260;2023-02-22T00:49:49;12.03;;;10.07;;
6432;SDS011;3249;42.690;23.260;2023-02-22T00:52:18;10.73;;;9.50;;
6432;SDS011;3249;42.690;23.260;2023-02-22T00:54:47;20.50;;;12.20;;
6432;SDS011;3249;42.690;23.260;2023-02-22T00:57:15;11.40;;;8.63;;
6432;SDS011;3249;42.690;23.260;2023-02-22T00:59:45;12.90;;;9.67;;
6432;SDS011;3249;42.690;23.260;2023-02-22T01:02:13;13.87;;;9.67;;
6432;SDS011;3249;42.690;23.260;2023-02-22T01:04:43;15.13;;;10.00;;
6432;SDS011;3249;42.690;23.260;2023-02-22T01:07:17;14.67;;;10.20;;
6432;SDS011;3249;42.690;23.260;2023-02-22T01:09:46;13.83;;;10.03;;
6432;SDS011;3249;42.690;23.260;2023-02-22T01:12:15;16.10;;;10.33;;
6432;SDS011;3249;42.690;23.260;2023-02-22T01:14:45;14.77;;;9.97;;
6432;SDS011;3249;42.690;23.260;2023-02-22T01:17:14;12.60;;;9.73;;
6432;SDS011;3249;42.690;23.260;2023-02-22T01:19:43;11.63;;;9.30;;
6432;SDS011;3249;42.690;23.260;2023-02-22T01:22:12;17.37;;;10.43;;
6432;SDS011;3249;42.690;23.260;2023-02-22T01:24:43;13.00;;;9.10;;
6432;SDS011;3249;42.690;23.260;2023-02-22T01:27:12;11.30;;;9.10;;
6432;SDS011;3249;42.690;23.260;2023-02-22T01:29:42;13.80;;;9.20;;
6432;SDS011;3249;42.690;23.260;2023-02-22T01:32:11;11.60;;;10.33;;
6432;SDS011;3249;42.690;23.260;2023-02-22T01:34:39;13.80;;;9.67;;
6432;SDS011;3249;42.690;23.260;2023-02-22T01:37:09;11.00;;;9.90;;
6432;SDS011;3249;42.690;23.260;2023-02-22T01:39:38;10.30;;;9.17;;
6432;SDS011;3249;42.690;23.260;2023-02-22T01:42:10;12.50;;;10.07;;
6432;SDS011;3249;42.690;23.260;2023-02-22T01:44:39;12.90;;;9.97;;
6432;SDS011;3249;42.690;23.260;2023-02-22T01:47:08;13.30;;;8.93;;
6432;SDS011;3249;42.690;23.260;2023-02-22T01:49:37;13.10;;;9.80;;
6432;SDS011;3249;42.690;23.260;2023-02-22T01:52:12;10.77;;;8.50;;
6432;SDS011;3249;42.690;23.260;2023-02-22T01:54:46;11.57;;;8.83;;
6432;SDS011;3249;42.690;23.260;2023-02-22T01:57:23;9.90;;;8.37;;
6432;SDS011;3249;42.690;23.260;2023-02-22T01:59:56;5.83;;;5.23;;
6432;SDS011;3249;42.690;23.260;2023-02-22T02:02:54;7.97;;;5.87;;
6432;SDS011;3249;42.690;23.260;2023-02-22T02:05:27;6.40;;;5.80;;
6432;SDS011;3249;42.690;23.260;2023-02-22T02:08:00;5.90;;;5.37;;
6432;SDS011;3249;42.690;23.260;2023-02-22T02:10:41;6.20;;;5.30;;
6432;SDS011;3249;42.690;23.260;2023-02-22T02:13:13;6.50;;;5.90;;
6432;SDS011;3249;42.690;23.260;2023-02-22T02:15:44;6.23;;;5.60;;
6432;SDS011;3249;42.690;23.260;2023-02-22T02:18:14;6.20;;;5.70;;
6432;SDS011;3249;42.690;23.260;2023-02-22T02:20:46;6.10;;;5.57;;
6432;SDS011;3249;42.690;23.260;2023-02-22T02:23:37;5.97;;;5.33;;
6432;SDS011;3249;42.690;23.260;2023-02-22T02:26:44;6.67;;;6.03;;
6432;SDS011;3249;42.690;23.260;2023-02-22T02:32:40;6.10;;;5.50;;
6432;SDS011;3249;42.690;23.260;2023-02-22T02:35:18;6.77;;;6.07;;
6432;SDS011;3249;42.690;23.260;2023-02-22T02:37:58;8.43;;;6.67;;
6432;SDS011;3249;42.690;23.260;2023-02-22T02:40:36;7.77;;;6.97;;
6432;SDS011;3249;42.690;23.260;2023-02-22T02:43:11;6.83;;;6.27;;
6432;SDS011;3249;42.690;23.260;2023-02-22T02:45:46;8.47;;;6.40;;
6432;SDS011;3249;42.690;23.260;2023-02-22T02:48:24;7.70;;;6.60;;
6432;SDS011;3249;42.690;23.260;2023-02-22T02:50:57;7.17;;;6.50;;
6432;SDS011;3249;42.690;23.260;2023-02-22T02:53:29;7.53;;;6.07;;
6432;SDS011;3249;42.690;23.260;2023-02-22T02:56:02;7.47;;;6.63;;
6432;SDS011;3249;42.690;23.260;2023-02-22T02:58:32;13.80;;;7.20;;
6432;SDS011;3249;42.690;23.260;2023-02-22T03:01:01;10.07;;;7.10;;
6432;SDS011;3249;42.690;23.260;2023-02-22T03:03:39;9.53;;;8.10;;
6432;SDS011;3249;42.690;23.260;2023-02-22T03:09:21;9.10;;;7.40;;
6432;SDS011;3249;42.690;23.260;2023-02-22T03:12:00;9.03;;;6.93;;
6432;SDS011;3249;42.690;23.260;2023-02-22T03:14:40;9.67;;;7.17;;
6432;SDS011;3249;42.690;23.260;2023-02-22T03:17:15;6.83;;;6.23;;
6432;SDS011;3249;42.690;23.260;2023-02-22T03:19:53;10.33;;;7.83;;
6432;SDS011;3249;42.690;23.260;2023-02-22T03:22:30;10.97;;;6.67;;
6432;SDS011;3249;42.690;23.260;2023-02-22T03:25:11;11.03;;;7.20;;
6432;SDS011;3249;42.690;23.260;2023-02-22T03:27:46;8.70;;;6.60;;
6432;SDS011;3249;42.690;23.260;2023-02-22T03:30:19;12.13;;;6.67;;
6432;SDS011;3249;42.690;23.260;2023-02-22T03:32:55;11.10;;;7.17;;
6432;SDS011;3249;42.690;23.260;2023-02-22T03:35:41;12.60;;;7.93;;
6432;SDS011;3249;42.690;23.260;2023-02-22T03:38:15;7.47;;;6.90;;
6432;SDS011;3249;42.690;23.260;2023-02-22T03:40:48;10.37;;;7.30;;
6432;SDS011;3249;42.690;23.260;2023-02-22T03:43:24;8.57;;;7.77;;
6432;SDS011;3249;42.690;23.260;2023-02-22T03:46:01;15.43;;;7.80;;
6432;SDS011;3249;42.690;23.260;2023-02-22T03:48:34;9.50;;;6.83;;
6432;SDS011;3249;42.690;23.260;2023-02-22T03:51:13;13.33;;;7.10;;
6432;SDS011;3249;42.690;23.260;2023-02-22T03:53:48;9.17;;;7.57;;
6432;SDS011;3249;42.690;23.260;2023-02-22T03:56:22;10.93;;;7.57;;
6432;SDS011;3249;42.690;23.260;2023-02-22T03:59:01;20.43;;;8.97;;
6432;SDS011;3249;42.690;23.260;2023-02-22T04:01:32;20.43;;;9.80;;
6432;SDS011;3249;42.690;23.260;2023-02-22T04:04:02;19.30;;;9.40;;
6432;SDS011;3249;42.690;23.260;2023-02-22T04:06:35;10.97;;;7.83;;
6432;SDS011;3249;42.690;23.260;2023-02-22T04:09:04;12.60;;;8.30;;
6432;SDS011;3249;42.690;23.260;2023-02-22T04:11:33;14.13;;;8.37;;
6432;SDS011;3249;42.690;23.260;2023-02-22T04:14:02;13.43;;;8.10;;
6432;SDS011;3249;42.690;23.260;2023-02-22T04:16:31;12.63;;;7.57;;
6432;SDS011;3249;42.690;23.260;2023-02-22T04:19:03;11.10;;;7.70;;
6432;SDS011;3249;42.690;23.260;2023-02-22T04:21:36;8.93;;;7.33;;
6432;SDS011;3249;42.690;23.260;2023-02-22T04:24:11;12.90;;;7.43;;
6432;SDS011;3249;42.690;23.260;2023-02-22T04:26:41;13.20;;;8.77;;
6432;SDS011;3249;42.690;23.260;2023-02-22T04:29:10;25.87;;;16.30;;
6432;SDS011;3249;42.690;23.260;2023-02-22T04:31:42;19.43;;;10.53;;
6432;SDS011;3249;42.690;23.260;2023-02-22T04:34:12;24.57;;;12.13;;
6432;SDS011;3249;42.690;23.260;2023-02-22T04:36:44;18.97;;;9.73;;
6432;SDS011;3249;42.690;23.260;2023-02-22T04:39:14;18.23;;;10.30;;
6432;SDS011;3249;42.690;23.260;2023-02-22T04:41:43;27.20;;;11.07;;
6432;SDS011;3249;42.690;23.260;2023-02-22T04:44:12;28.70;;;12.10;;
6432;SDS011;3249;42.690;23.260;2023-02-22T04:46:41;25.57;;;13.57;;
6432;SDS011;3249;42.690;23.260;2023-02-22T04:49:13;21.37;;;11.73;;
6432;SDS011;3249;42.690;23.260;2023-02-22T04:51:46;33.97;;;15.97;;
6432;SDS011;3249;42.690;23.260;2023-02-22T04:54:19;58.13;;;19.57;;
6432;SDS011;3249;42.690;23.260;2023-02-22T04:56:48;31.63;;;16.77;;
6432;SDS011;3249;42.690;23.260;2023-02-22T04:59:17;36.33;;;22.20;;
6432;SDS011;3249;42.690;23.260;2023-02-22T05:01:52;48.37;;;26.40;;
6432;SDS011;3249;42.690;23.260;2023-02-22T05:04:21;54.17;;;25.20;;
6432;SDS011;3249;42.690;23.260;2023-02-22T05:06:53;45.40;;;25.57;;
6432;SDS011;3249;42.690;23.260;2023-02-22T05:09:22;51.87;;;26.13;;
6432;SDS011;3249;42.690;23.260;2023-02-22T05:11:50;46.00;;;26.90;;
6432;SDS011;3249;42.690;23.260;2023-02-22T05:14:19;38.93;;;21.40;;
6432;SDS011;3249;42.690;23.260;2023-02-22T05:16:51;29.53;;;17.23;;
6432;SDS011;3249;42.690;23.260;2023-02-22T05:19:22;22.37;;;14.03;;
6432;SDS011;3249;42.690;23.260;2023-02-22T05:21:53;23.83;;;15.13;;
6432;SDS011;3249;42.690;23.260;2023-02-22T05:24:23;17.60;;;12.33;;
6432;SDS011;3249;42.690;23.260;2023-02-22T05:26:52;19.13;;;13.33;;
6432;SDS011;3249;42.690;23.260;2023-02-22T05:29:21;17.57;;;12.20;;
6432;SDS011;3249;42.690;23.260;2023-02-22T05:31:50;28.20;;;16.73;;
6432;SDS011;3249;42.690;23.260;2023-02-22T05:34:19;44.87;;;21.00;;
6432;SDS011;3249;42.690;23.260;2023-02-22T05:36:48;45.67;;;20.57;;
6432;SDS011;3249;42.690;23.260;2023-02-22T05:39:20;51.97;;;20.63;;
6432;SDS011;3249;42.690;23.260;2023-02-22T05:41:48;36.63;;;18.60;;
6432;SDS011;3249;42.690;23.260;2023-02-22T05:44:18;31.10;;;16.77;;
6432;SDS011;3249;42.690;23.260;2023-02-22T05:46:47;37.67;;;19.30;;
6432;SDS011;3249;42.690;23.260;2023-02-22T05:49:16;36.50;;;16.97;;
6432;SDS011;3249;42.690;23.260;2023-02-22T05:51:45;42.60;;;15.33;;
6432;SDS011;3249;42.690;23.260;2023-02-22T05:54:13;33.07;;;16.57;;
6432;SDS011;3249;42.690;23.260;2023-02-22T05:56:45;38.37;;;15.63;;
6432;SDS011;3249;42.690;23.260;2023-02-22T05:59:14;38.27;;;15.63;;
6432;SDS011;3249;42.690;23.260;2023-02-22T06:01:43;51.77;;;18.77;;
6432;SDS011;3249;42.690;23.260;2023-02-22T06:04:12;31.03;;;16.67;;
6432;SDS011;3249;42.690;23.260;2023-02-22T06:06:41;35.47;;;16.67;;
6432;SDS011;3249;42.690;23.260;2023-02-22T06:09:11;41.13;;;21.00;;
6432;SDS011;3249;42.690;23.260;2023-02-22T06:11:40;27.33;;;17.87;;
6432;SDS011;3249;42.690;23.260;2023-02-22T06:14:11;30.00;;;18.13;;
6432;SDS011;3249;42.690;23.260;2023-02-22T06:16:40;41.47;;;21.73;;
6432;SDS011;3249;42.690;23.260;2023-02-22T06:19:09;41.73;;;20.47;;
6432;SDS011;3249;42.690;23.260;2023-02-22T06:21:38;44.00;;;24.93;;
6432;SDS011;3249;42.690;23.260;2023-02-22T06:24:07;35.13;;;20.43;;
6432;SDS011;3249;42.690;23.260;2023-02-22T06:26:36;32.93;;;22.77;;
6432;SDS011;3249;42.690;23.260;2023-02-22T06:29:05;34.97;;;21.23;;
6432;SDS011;3249;42.690;23.260;2023-02-22T06:31:36;34.97;;;20.53;;
6432;SDS011;3249;42.690;23.260;2023-02-22T06:34:05;35.80;;;19.50;;
6432;SDS011;3249;42.690;23.260;2023-02-22T06:36:34;29.97;;;19.63;;
6432;SDS011;3249;42.690;23.260;2023-02-22T06:39:03;32.07;;;18.83;;
6432;SDS011;3249;42.690;23.260;2023-02-22T06:41:35;26.57;;;17.60;;
6432;SDS011;3249;42.690;23.260;2023-02-22T06:44:04;25.80;;;17.57;;
6432;SDS011;3249;42.690;23.260;2023-02-22T06:46:37;29.17;;;16.43;;
6432;SDS011;3249;42.690;23.260;2023-02-22T06:49:06;34.60;;;15.90;;
6432;SDS011;3249;42.690;23.260;2023-02-22T06:51:35;24.47;;;15.97;;
6432;SDS011;3249;42.690;23.260;2023-02-22T06:54:05;42.83;;;27.37;;
6432;SDS011;3249;42.690;23.260;2023-02-22T06:56:33;38.43;;;25.83;;
6432;SDS011;3249;42.690;23.260;2023-02-22T06:59:03;40.30;;;26.30;;
6432;SDS011;3249;42.690;23.260;2023-02-22T07:01:33;18.03;;;13.73;;
6432;SDS011;3249;42.690;23.260;2023-02-22T07:04:04;15.70;;;11.20;;
6432;SDS011;3249;42.690;23.260;2023-02-22T07:06:33;13.03;;;10.03;;
6432;SDS011;3249;42.690;23.260;2023-02-22T07:09:02;10.70;;;9.60;;
6432;SDS011;3249;42.690;23.260;2023-02-22T07:11:32;13.57;;;11.27;;
6432;SDS011;3249;42.690;23.260;2023-02-22T07:14:01;15.60;;;11.50;;
6432;SDS011;3249;42.690;23.260;2023-02-22T07:16:30;15.93;;;9.63;;
6432;SDS011;3249;42.690;23.260;2023-02-22T07:18:59;15.10;;;9.50;;
6432;SDS011;3249;42.690;23.260;2023-02-22T07:21:31;16.57;;;11.17;;
6432;SDS011;3249;42.690;23.260;2023-02-22T07:24:00;19.40;;;10.60;;
6432;SDS011;3249;42.690;23.260;2023-02-22T07:26:30;17.80;;;10.87;;
6432;SDS011;3249;42.690;23.260;2023-02-22T07:29:05;14.43;;;10.30;;
6432;SDS011;3249;42.690;23.260;2023-02-22T07:31:36;15.93;;;11.27;;
6432;SDS011;3249;42.690;23.260;2023-02-22T07:34:06;17.53;;;11.27;;
6432;SDS011;3249;42.690;23.260;2023-02-22T07:36:38;14.80;;;11.03;;
6432;SDS011;3249;42.690;23.260;2023-02-22T07:39:07;19.03;;;11.53;;
6432;SDS011;3249;42.690;23.260;2023-02-22T07:41:36;15.67;;;12.23;;
6432;SDS011;3249;42.690;23.260;2023-02-22T07:44:20;14.37;;;10.87;;
6432;SDS011;3249;42.690;23.260;2023-02-22T07:46:48;18.53;;;11.43;;
6432;SDS011;3249;42.690;23.260;2023-02-22T07:49:18;18.40;;;11.20;;
6432;SDS011;3249;42.690;23.260;2023-02-22T07:51:49;18.67;;;11.33;;
6432;SDS011;3249;42.690;23.260;2023-02-22T07:54:18;18.53;;;12.13;;
6432;SDS011;3249;42.690;23.260;2023-02-22T07:56:47;17.60;;;11.60;;
6432;SDS011;3249;42.690;23.260;2023-02-22T07:59:17;18.20;;;12.07;;
6432;SDS011;3249;42.690;23.260;2023-02-22T08:01:47;20.80;;;12.37;;
6432;SDS011;3249;42.690;23.260;2023-02-22T08:04:17;19.33;;;11.73;;
6432;SDS011;3249;42.690;23.260;2023-02-22T08:06:46;19.27;;;10.53;;
6432;SDS011;3249;42.690;23.260;2023-02-22T08:09:17;20.27;;;13.13;;
6432;SDS011;3249;42.690;23.260;2023-02-22T08:11:48;24.30;;;15.37;;
6432;SDS011;3249;42.690;23.260;2023-02-22T08:14:17;21.93;;;16.37;;
6432;SDS011;3249;42.690;23.260;2023-02-22T08:16:46;24.17;;;18.70;;
6432;SDS011;3249;42.690;23.260;2023-02-22T08:19:15;34.87;;;22.33;;
6432;SDS011;3249;42.690;23.260;2023-02-22T08:21:44;33.70;;;20.00;;
6432;SDS011;3249;42.690;23.260;2023-02-22T08:24:13;38.47;;;22.50;;
6432;SDS011;3249;42.690;23.260;2023-02-22T08:26:46;40.70;;;23.50;;
6432;SDS011;3249;42.690;23.260;2023-02-22T08:29:15;38.27;;;22.23;;
6432;SDS011;3249;42.690;23.260;2023-02-22T08:31:48;27.70;;;20.83;;
6432;SDS011;3249;42.690;23.260;2023-02-22T08:34:18;29.57;;;17.70;;
6432;SDS011;3249;42.690;23.260;2023-02-22T08:36:49;28.90;;;17.87;;
6432;SDS011;3249;42.690;23.260;2023-02-22T08:39:18;29.90;;;16.57;;
6432;SDS011;3249;42.690;23.260;2023-02-22T08:41:49;22.97;;;15.57;;
6432;SDS011;3249;42.690;23.260;2023-02-22T08:44:19;23.37;;;15.50;;
6432;SDS011;3249;42.690;23.260;2023-02-22T08:46:49;32.07;;;16.43;;
6432;SDS011;3249;42.690;23.260;2023-02-22T08:49:21;26.13;;;17.17;;
6432;SDS011;3249;42.690;23.260;2023-02-22T08:51:51;28.53;;;17.40;;
6432;SDS011;3249;42.690;23.260;2023-02-22T08:54:20;26.93;;;13.97;;
6432;SDS011;3249;42.690;23.260;2023-02-22T08:56:52;20.57;;;11.77;;
6432;SDS011;3249;42.690;23.260;2023-02-22T08:59:21;22.57;;;12.97;;
6432;SDS011;3249;42.690;23.260;2023-02-22T09:01:50;17.03;;;12.40;;
6432;SDS011;3249;42.690;23.260;2023-02-22T09:04:19;19.93;;;9.77;;
6432;SDS011;3249;42.690;23.260;2023-02-22T09:06:48;9.37;;;7.70;;
6432;SDS011;3249;42.690;23.260;2023-02-22T09:09:17;13.07;;;7.83;;
6432;SDS011;3249;42.690;23.260;2023-02-22T09:11:47;9.93;;;7.40;;
6432;SDS011;3249;42.690;23.260;2023-02-22T09:14:19;11.80;;;7.37;;
6432;SDS011;3249;42.690;23.260;2023-02-22T09:16:48;11.83;;;7.27;;
6432;SDS011;3249;42.690;23.260;2023-02-22T09:19:17;10.27;;;7.60;;
6432;SDS011;3249;42.690;23.260;2023-02-22T09:21:51;6.93;;;5.83;;
6432;SDS011;3249;42.690;23.260;2023-02-22T09:24:20;9.00;;;6.60;;
6432;SDS011;3249;42.690;23.260;2023-02-22T09:26:49;9.47;;;6.07;;
6432;SDS011;3249;42.690;23.260;2023-02-22T09:29:24;6.23;;;5.73;;
6432;SDS011;3249;42.690;23.260;2023-02-22T09:31:55;7.87;;;5.93;;
6432;SDS011;3249;42.690;23.260;2023-02-22T09:34:25;7.00;;;5.53;;
6432;SDS011;3249;42.690;23.260;2023-02-22T09:36:55;5.90;;;5.40;;
6432;SDS011;3249;42.690;23.260;2023-02-22T09:39:24;5.73;;;5.23;;
6432;SDS011;3249;42.690;23.260;2023-02-22T09:41:56;8.93;;;5.63;;
6432;SDS011;3249;42.690;23.260;2023-02-22T09:44:40;6.27;;;5.70;;
6432;SDS011;3249;42.690;23.260;2023-02-22T09:47:14;6.20;;;5.53;;
6432;SDS011;3249;42.690;23.260;2023-02-22T09:49:50;8.37;;;5.33;;
6432;SDS011;3249;42.690;23.260;2023-02-22T09:52:27;8.10;;;5.87;;
6432;SDS011;3249;42.690;23.260;2023-02-22T09:55:03;5.37;;;4.97;;
6432;SDS011;3249;42.690;23.260;2023-02-22T09:57:38;6.10;;;5.60;;
6432;SDS011;3249;42.690;23.260;2023-02-22T10:00:26;5.63;;;5.13;;
6432;SDS011;3249;42.690;23.260;2023-02-22T10:03:06;5.70;;;5.10;;
6432;SDS011;3249;42.690;23.260;2023-02-22T10:07:01;7.43;;;5.53;;
6432;SDS011;3249;42.690;23.260;2023-02-22T10:10:09;7.17;;;5.77;;
6432;SDS011;3249;42.690;23.260;2023-02-22T10:16:37;11.37;;;5.73;;
6432;SDS011;3249;42.690;23.260;2023-02-22T10:19:15;7.60;;;5.67;;
6432;SDS011;3249;42.690;23.260;2023-02-22T10:21:55;8.30;;;5.43;;
6432;SDS011;3249;42.690;23.260;2023-02-22T10:24:37;11.00;;;5.57;;
6432;SDS011;3249;42.690;23.260;2023-02-22T10:27:19;5.57;;;5.07;;
6432;SDS011;3249;42.690;23.260;2023-02-22T10:30:18;5.67;;;5.17;;
6432;SDS011;3249;42.690;23.260;2023-02-22T10:32:53;8.80;;;5.60;;
6432;SDS011;3249;42.690;23.260;2023-02-22T10:35:28;5.00;;;4.50;;
6432;SDS011;3249;42.690;23.260;2023-02-22T10:38:05;5.30;;;4.90;;
6432;SDS011;3249;42.690;23.260;2023-02-22T10:40:42;6.90;;;5.70;;
6432;SDS011;3249;42.690;23.260;2023-02-22T10:43:15;6.03;;;5.50;;
6432;SDS011;3249;42.690;23.260;2023-02-22T10:45:44;5.73;;;5.27;;
6432;SDS011;3249;42.690;23.260;2023-02-22T10:48:18;11.20;;;5.77;;
6432;SDS011;3249;42.690;23.260;2023-02-22T10:50:51;5.10;;;4.70;;
6432;SDS011;3249;42.690;23.260;2023-02-22T10:53:26;5.50;;;5.00;;
6432;SDS011;3249;42.690;23.260;2023-02-22T10:56:06;5.37;;;4.87;;
6432;SDS011;3249;42.690;23.260;2023-02-22T10:58:41;7.13;;;5.27;;
6432;SDS011;3249;42.690;23.260;2023-02-22T11:01:24;5.50;;;5.10;;
6432;SDS011;3249;42.690;23.260;2023-02-22T11:04:09;7.37;;;4.67;;
6432;SDS011;3249;42.690;23.260;2023-02-22T11:06:41;4.73;;;4.40;;
6432;SDS011;3249;42.690;23.260;2023-02-22T11:09:13;4.63;;;4.23;;
6432;SDS011;3249;42.690;23.260;2023-02-22T11:11:50;4.83;;;4.50;;
6432;SDS011;3249;42.690;23.260;2023-02-22T11:14:38;5.00;;;4.60;;
6432;SDS011;3249;42.690;23.260;2023-02-22T11:17:07;11.37;;;6.57;;
6432;SDS011;3249;42.690;23.260;2023-02-22T11:19:44;7.17;;;6.50;;
6432;SDS011;3249;42.690;23.260;2023-02-22T11:22:19;5.60;;;4.50;;
6432;SDS011;3249;42.690;23.260;2023-02-22T11:24:54;6.37;;;4.83;;
6432;SDS011;3249;42.690;23.260;2023-02-22T11:27:33;4.73;;;4.43;;
6432;SDS011;3249;42.690;23.260;2023-02-22T11:32:57;5.13;;;4.73;;
6432;SDS011;3249;42.690;23.260;2023-02-22T11:35:38;4.70;;;4.30;;
6432;SDS011;3249;42.690;23.260;2023-02-22T11:38:18;5.00;;;4.70;;
6432;SDS011;3249;42.690;23.260;2023-02-22T11:41:03;4.53;;;4.13;;
6432;SDS011;3249;42.690;23.260;2023-02-22T11:43:39;4.60;;;4.30;;
6432;SDS011;3249;42.690;23.260;2023-02-22T11:46:10;4.80;;;4.37;;
6432;SDS011;3249;42.690;23.260;2023-02-22T11:48:54;7.03;;;4.77;;
6432;SDS011;3249;42.690;23.260;2023-02-22T11:51:29;4.70;;;4.30;;
6432;SDS011;3249;42.690;23.260;2023-02-22T11:54:13;4.70;;;4.40;;
6432;SDS011;3249;42.690;23.260;2023-02-22T11:57:03;4.77;;;4.37;;
6432;SDS011;3249;42.690;23.260;2023-02-22T11:59:49;5.10;;;4.60;;
6432;SDS011;3249;42.690;23.260;2023-02-22T12:02:31;5.07;;;3.77;;
6432;SDS011;3249;42.690;23.260;2023-02-22T12:05:16;4.57;;;4.17;;
6432;SDS011;3249;42.690;23.260;2023-02-22T12:07:56;4.20;;;3.90;;
6432;SDS011;3249;42.690;23.260;2023-02-22T12:10:38;4.63;;;4.20;;
6432;SDS011;3249;42.690;23.260;2023-02-22T12:13:23;5.23;;;4.83;;
6432;SDS011;3249;42.690;23.260;2023-02-22T12:16:04;4.43;;;4.10;;
6432;SDS011;3249;42.690;23.260;2023-02-22T12:18:48;5.50;;;4.07;;
6432;SDS011;3249;42.690;23.260;2023-02-22T12:21:30;4.57;;;4.30;;
6432;SDS011;3249;42.690;23.260;2023-02-22T12:24:17;4.07;;;3.87;;
6432;SDS011;3249;42.690;23.260;2023-02-22T12:26:50;6.20;;;4.43;;
6432;SDS011;3249;42.690;23.260;2023-02-22T12:29:25;4.73;;;4.33;;
6432;SDS011;3249;42.690;23.260;2023-02-22T12:32:03;4.57;;;4.23;;
6432;SDS011;3249;42.690;23.260;2023-02-22T12:34:35;4.33;;;3.93;;
6432;SDS011;3249;42.690;23.260;2023-02-22T12:37:13;4.80;;;4.03;;
6432;SDS011;3249;42.690;23.260;2023-02-22T12:39:54;4.67;;;4.37;;
6432;SDS011;3249;42.690;23.260;2023-02-22T12:42:41;4.77;;;4.37;;
6432;SDS011;3249;42.690;23.260;2023-02-22T12:45:20;4.83;;;4.53;;
6432;SDS011;3249;42.690;23.260;2023-02-22T12:47:58;4.97;;;4.60;;
6432;SDS011;3249;42.690;23.260;2023-02-22T12:50:35;5.40;;;5.00;;
6432;SDS011;3249;42.690;23.260;2023-02-22T12:53:07;5.10;;;4.77;;
6432;SDS011;3249;42.690;23.260;2023-02-22T12:55:49;8.37;;;7.57;;
6432;SDS011;3249;42.690;23.260;2023-02-22T12:58:21;9.73;;;6.40;;
6432;SDS011;3249;42.690;23.260;2023-02-22T13:00:57;5.00;;;4.60;;
6432;SDS011;3249;42.690;23.260;2023-02-22T13:03:34;5.70;;;4.20;;
6432;SDS011;3249;42.690;23.260;2023-02-22T13:06:21;4.80;;;4.50;;
6432;SDS011;3249;42.690;23.260;2023-02-22T13:09:01;4.50;;;4.30;;
6432;SDS011;3249;42.690;23.260;2023-02-22T13:11:48;4.73;;;4.40;;
6432;SDS011;3249;42.690;23.260;2023-02-22T13:14:32;5.77;;;4.30;;
6432;SDS011;3249;42.690;23.260;2023-02-22T13:17:09;4.80;;;4.50;;
6432;SDS011;3249;42.690;23.260;2023-02-22T13:19:48;5.10;;;4.80;;
6432;SDS011;3249;42.690;23.260;2023-02-22T13:22:28;4.80;;;4.33;;
6432;SDS011;3249;42.690;23.260;2023-02-22T13:25:05;5.53;;;5.03;;
6432;SDS011;3249;42.690;23.260;2023-02-22T13:27:44;4.83;;;4.53;;
6432;SDS011;3249;42.690;23.260;2023-02-22T13:30:22;5.20;;;4.73;;
6432;SDS011;3249;42.690;23.260;2023-02-22T13:33:06;6.40;;;5.43;;
6432;SDS011;3249;42.690;23.260;2023-02-22T13:35:52;5.83;;;5.30;;
6432;SDS011;3249;42.690;23.260;2023-02-22T13:38:45;5.67;;;5.27;;
6432;SDS011;3249;42.690;23.260;2023-02-22T13:53:42;6.23;;;5.70;;
6432;SDS011;3249;42.690;23.260;2023-02-22T13:56:20;5.50;;;5.10;;
6432;SDS011;3249;42.690;23.260;2023-02-22T13:58:51;6.37;;;5.77;;
6432;SDS011;3249;42.690;23.260;2023-02-22T14:01:39;5.83;;;5.27;;
6432;SDS011;3249;42.690;23.260;2023-02-22T14:13:04;5.77;;;5.27;;
6432;SDS011;3249;42.690;23.260;2023-02-22T14:15:34;5.63;;;5.17;;
6432;SDS011;3249;42.690;23.260;2023-02-22T14:18:12;6.40;;;5.70;;
6432;SDS011;3249;42.690;23.260;2023-02-22T14:20:45;9.27;;;6.97;;
6432;SDS011;3249;42.690;23.260;2023-02-22T14:23:33;8.73;;;6.73;;
6432;SDS011;3249;42.690;23.260;2023-02-22T14:26:09;6.67;;;6.17;;
6432;SDS011;3249;42.690;23.260;2023-02-22T14:28:41;7.27;;;6.57;;
6432;SDS011;3249;42.690;23.260;2023-02-22T14:31:20;8.57;;;7.33;;
6432;SDS011;3249;42.690;23.260;2023-02-22T14:34:03;7.63;;;6.97;;
6432;SDS011;3249;42.690;23.260;2023-02-22T14:36:40;12.00;;;10.80;;
6432;SDS011;3249;42.690;23.260;2023-02-22T14:39:22;15.50;;;13.07;;
6432;SDS011;3249;42.690;23.260;2023-02-22T14:41:58;17.20;;;15.50;;
6432;SDS011;3249;42.690;23.260;2023-02-22T14:44:34;8.90;;;8.10;;
6432;SDS011;3249;42.690;23.260;2023-02-22T14:47:08;7.07;;;6.43;;
6432;SDS011;3249;42.690;23.260;2023-02-22T14:49:48;7.17;;;6.60;;
6432;SDS011;3249;42.690;23.260;2023-02-22T14:52:22;10.83;;;7.53;;
6432;SDS011;3249;42.690;23.260;2023-02-22T14:54:58;8.63;;;6.83;;
6432;SDS011;3249;42.690;23.260;2023-02-22T14:57:39;14.53;;;8.20;;
6432;SDS011;3249;42.690;23.260;2023-02-22T15:00:19;7.80;;;7.00;;
6432;SDS011;3249;42.690;23.260;2023-02-22T15:02:56;6.93;;;6.33;;
6432;SDS011;3249;42.690;23.260;2023-02-22T15:05:33;7.70;;;6.93;;
6432;SDS011;3249;42.690;23.260;2023-02-22T15:08:06;7.37;;;6.70;;
6432;SDS011;3249;42.690;23.260;2023-02-22T15:10:40;10.03;;;7.00;;
6432;SDS011;3249;42.690;23.260;2023-02-22T15:13:13;11.97;;;8.47;;
6432;SDS011;3249;42.690;23.260;2023-02-22T15:15:45;7.50;;;6.80;;
6432;SDS011;3249;42.690;23.260;2023-02-22T15:18:17;8.00;;;7.20;;
6432;SDS011;3249;42.690;23.260;2023-02-22T15:20:52;7.70;;;6.77;;
6432;SDS011;3249;42.690;23.260;2023-02-22T15:23:25;10.33;;;7.20;;
6432;SDS011;3249;42.690;23.260;2023-02-22T15:26:00;7.93;;;7.13;;
6432;SDS011;3249;42.690;23.260;2023-02-22T15:28:30;12.77;;;7.77;;
6432;SDS011;3249;42.690;23.260;2023-02-22T15:31:13;11.03;;;7.43;;
6432;SDS011;3249;42.690;23.260;2023-02-22T15:33:44;9.07;;;8.17;;
6432;SDS011;3249;42.690;23.260;2023-02-22T15:36:16;8.33;;;7.60;;
6432;SDS011;3249;42.690;23.260;2023-02-22T15:38:50;9.57;;;7.40;;
6432;SDS011;3249;42.690;23.260;2023-02-22T15:41:22;7.73;;;7.03;;
6432;SDS011;3249;42.690;23.260;2023-02-22T15:43:56;9.13;;;8.33;;
6432;SDS011;3249;42.690;23.260;2023-02-22T15:46:31;9.57;;;8.73;;
6432;SDS011;3249;42.690;23.260;2023-02-22T15:49:05;8.27;;;7.23;;
6432;SDS011;3249;42.690;23.260;2023-02-22T15:51:48;9.97;;;8.03;;
6432;SDS011;3249;42.690;23.260;2023-02-22T15:54:29;9.97;;;8.27;;
6432;SDS011;3249;42.690;23.260;2023-02-22T15:57:06;8.43;;;7.70;;
6432;SDS011;3249;42.690;23.260;2023-02-22T15:59:39;14.00;;;8.07;;
6432;SDS011;3249;42.690;23.260;2023-02-22T16:05:04;13.03;;;9.30;;
6432;SDS011;3249;42.690;23.260;2023-02-22T16:07:40;14.73;;;8.37;;
6432;SDS011;3249;42.690;23.260;2023-02-22T16:10:19;9.43;;;8.47;;